Time;durP1;ratioP1;P1;durP2;ratioP2;P2;SDS_P1;SDS_P2;PMS_P1;PMS_P2;Temp;Humidity;BMP_temperature;BMP_pressure;BME280_temperature;BME280_humidity;BME280_pressure;Samples;Min_cycle;Max_cycle;Signal;HPM_P1;HPM_P2
2021/03/04 00:00:13;;;;;;;106.15;28.98;;;3.10;99.90;;;;;;5073662;28;20044;-85
2021/03/04 00:02:40;;;;;;;98.13;26.55;;;3.10;99.90;;;;;;5087666;28;20102;-85
2021/03/04 00:05:07;;;;;;;89.88;27.77;;;3.10;99.90;;;;;;5072990;28;20487;-87
2021/03/04 00:07:34;;;;;;;87.60;24.30;;;3.10;99.90;;;;;;5054082;28;20043;-87
2021/03/04 00:10:00;;;;;;;105.80;28.65;;;3.00;99.90;;;;;;5078268;28;20040;-86
2021/03/04 00:12:26;;;;;;;112.40;30.77;;;3.10;99.90;;;;;;5064411;28;20056;-86
2021/03/04 00:14:52;;;;;;;88.57;23.90;;;3.10;99.90;;;;;;5093172;28;20044;-88
2021/03/04 00:17:19;;;;;;;94.90;26.73;;;3.10;99.90;;;;;;5060656;28;20044;-86
2021/03/04 00:19:45;;;;;;;115.15;32.38;;;3.10;99.90;;;;;;5069725;28;20050;-86
2021/03/04 00:22:10;;;;;;;107.15;29.73;;;3.10;99.90;;;;;;5078870;28;20039;-86
2021/03/04 00:24:36;;;;;;;134.15;33.72;;;3.10;99.90;;;;;;5036104;28;20040;-86
2021/03/04 00:27:02;;;;;;;165.60;38.78;;;3.10;99.90;;;;;;5047382;28;20044;-85
2021/03/04 00:29:28;;;;;;;112.82;28.48;;;3.10;99.90;;;;;;5103736;27;20115;-87
2021/03/04 00:31:54;;;;;;;147.60;35.95;;;3.20;99.90;;;;;;5073454;28;20040;-83
2021/03/04 00:34:20;;;;;;;164.25;38.17;;;3.20;99.90;;;;;;5086747;28;20360;-84
2021/03/04 00:36:46;;;;;;;129.70;35.67;;;3.20;99.90;;;;;;5056270;28;20043;-82
2021/03/04 00:39:12;;;;;;;119.07;36.65;;;3.20;99.90;;;;;;5068651;28;20126;-83
2021/03/04 00:41:37;;;;;;;124.85;35.47;;;3.20;99.90;;;;;;5073945;28;20044;-84
2021/03/04 00:44:06;;;;;;;130.57;36.28;;;3.10;99.90;;;;;;5083886;28;20088;-88
2021/03/04 00:46:33;;;;;;;127.32;34.75;;;3.10;99.90;;;;;;5092724;28;20039;-85
2021/03/04 00:49:00;;;;;;;124.32;33.17;;;3.10;99.90;;;;;;5047718;28;20135;-83
2021/03/04 00:51:27;;;;;;;82.63;24.17;;;3.10;99.90;;;;;;5085866;28;20112;-83
2021/03/04 00:53:52;;;;;;;101.45;31.98;;;3.10;99.90;;;;;;5065186;28;20056;-83
2021/03/04 00:56:18;;;;;;;119.82;32.28;;;3.10;99.90;;;;;;5066771;28;20486;-87
2021/03/04 00:58:45;;;;;;;108.30;28.65;;;3.10;99.90;;;;;;5078124;28;20127;-84
2021/03/04 01:01:11;;;;;;;131.25;34.33;;;3.10;99.90;;;;;;5056392;28;20044;-83
2021/03/04 01:03:37;;;;;;;99.90;30.33;;;3.10;99.90;;;;;;5071332;28;20055;-84
2021/03/04 01:06:03;;;;;;;108.18;30.20;;;3.10;99.90;;;;;;5055438;28;20111;-83
2021/03/04 01:08:28;;;;;;;98.40;27.60;;;3.10;99.90;;;;;;5089286;28;20549;-83
2021/03/04 01:10:54;;;;;;;53.05;15.75;;;3.10;99.90;;;;;;5055775;28;20044;-83
2021/03/04 01:13:22;;;;;;;93.72;25.67;;;3.10;99.90;;;;;;5080119;28;20046;-86
2021/03/04 01:15:48;;;;;;;70.63;22.30;;;3.10;99.90;;;;;;5092505;28;20043;-84
2021/03/04 01:18:14;;;;;;;89.18;24.40;;;3.00;99.90;;;;;;5092366;28;20032;-82
2021/03/04 01:20:40;;;;;;;58.42;20.02;;;3.00;99.90;;;;;;5100070;28;20051;-83
2021/03/04 01:23:06;;;;;;;58.05;20.33;;;3.00;99.90;;;;;;5089022;28;20086;-82
2021/03/04 01:25:32;;;;;;;40.92;16.33;;;3.10;99.90;;;;;;5091259;28;20411;-83
2021/03/04 01:27:58;;;;;;;53.78;17.90;;;3.00;99.90;;;;;;5084949;28;20108;-83
2021/03/04 01:30:28;;;;;;;70.47;21.73;;;2.90;99.90;;;;;;5091492;28;20126;-82
2021/03/04 01:32:53;;;;;;;45.33;15.85;;;2.90;99.90;;;;;;5091611;28;20113;-83
2021/03/04 01:35:19;;;;;;;37.20;14.43;;;3.00;99.90;;;;;;5072119;28;20036;-86
2021/03/04 01:37:45;;;;;;;44.92;19.08;;;2.90;99.90;;;;;;5082843;28;20075;-84
2021/03/04 01:40:14;;;;;;;44.25;18.95;;;2.90;99.90;;;;;;5091820;28;20458;-84
2021/03/04 01:42:40;;;;;;;50.40;20.50;;;2.80;99.90;;;;;;5091211;28;20076;-86
2021/03/04 01:45:07;;;;;;;62.28;23.70;;;2.80;99.90;;;;;;5091359;28;20043;-85
2021/03/04 01:47:35;;;;;;;63.38;23.67;;;2.80;99.90;;;;;;5090276;28;20031;-84
2021/03/04 01:50:03;;;;;;;49.17;18.95;;;2.80;99.90;;;;;;5073785;28;20043;-85
2021/03/04 01:52:29;;;;;;;58.25;22.27;;;2.80;99.90;;;;;;5103476;28;20043;-86
2021/03/04 01:54:55;;;;;;;54.30;22.90;;;2.80;99.90;;;;;;5069896;28;20092;-84
2021/03/04 01:57:21;;;;;;;39.70;16.20;;;2.80;99.90;;;;;;5086999;28;20062;-85
2021/03/04 01:59:47;;;;;;;50.80;21.08;;;2.80;99.90;;;;;;5050162;28;20418;-84
2021/03/04 02:02:13;;;;;;;53.63;21.15;;;2.80;99.90;;;;;;5073795;28;20036;-84
2021/03/04 02:04:40;;;;;;;61.80;22.30;;;2.80;99.90;;;;;;5090053;28;20438;-83
2021/03/04 02:07:33;;;;;;;50.78;20.00;;;2.80;99.90;;;;;;5077266;28;20209;-83
2021/03/04 02:10:12;;;;;;;39.15;15.98;;;2.80;99.90;;;;;;5082214;28;20036;-84
2021/03/04 02:12:43;;;;;;;57.90;18.80;;;2.80;99.90;;;;;;5091398;28;20077;-84
2021/03/04 02:15:14;;;;;;;41.72;15.73;;;2.80;99.90;;;;;;5092416;28;20063;-84
2021/03/04 02:17:46;;;;;;;49.38;18.38;;;2.80;99.90;;;;;;5107755;28;20124;-84
2021/03/04 02:21:03;;;;;;;57.65;22.45;;;2.80;99.90;;;;;;5082245;28;20044;-86
2021/03/04 02:23:47;;;;;;;51.33;20.83;;;2.80;99.90;;;;;;5049775;28;20147;-84
2021/03/04 02:26:40;;;;;;;40.17;15.73;;;2.80;99.90;;;;;;5110121;28;20040;-85
2021/03/04 02:29:07;;;;;;;56.65;21.63;;;2.80;99.90;;;;;;5110896;28;20544;-85
2021/03/04 02:31:37;;;;;;;60.47;21.35;;;2.80;99.90;;;;;;5103509;28;20090;-84
2021/03/04 02:34:05;;;;;;;53.38;18.85;;;2.80;99.90;;;;;;5086561;28;20047;-84
2021/03/04 02:36:34;;;;;;;55.53;20.67;;;2.80;99.90;;;;;;5091632;28;20036;-83
2021/03/04 02:39:05;;;;;;;56.90;20.60;;;2.70;99.90;;;;;;5095682;28;20092;-84
2021/03/04 02:41:35;;;;;;;67.57;23.98;;;2.80;99.90;;;;;;5081480;28;20032;-83
2021/03/04 02:44:06;;;;;;;;;;;2.80;99.90;;;;;;5096436;28;20495;-84
2021/03/04 02:46:33;;;;;;;;;;;2.80;99.90;;;;;;5095028;28;19924;-85
2021/03/04 02:49:00;;;;;;;68.15;21.55;;;2.70;99.90;;;;;;5086927;28;19924;-85
2021/03/04 02:51:29;;;;;;;48.97;19.45;;;2.80;99.90;;;;;;5069976;28;20044;-87
2021/03/04 02:53:56;;;;;;;77.53;27.02;;;2.70;99.90;;;;;;5095193;28;20410;-85
2021/03/04 02:56:25;;;;;;;88.78;30.70;;;2.70;99.90;;;;;;5095351;28;20043;-87
2021/03/04 02:58:52;;;;;;;57.88;19.58;;;2.70;99.90;;;;;;5112867;28;20040;-86
2021/03/04 03:01:20;;;;;;;51.97;20.55;;;2.70;99.90;;;;;;5091638;28;20032;-86
2021/03/04 03:03:48;;;;;;;41.58;15.70;;;2.70;99.90;;;;;;5085226;28;20139;-86
2021/03/04 03:06:16;;;;;;;49.55;21.15;;;2.70;99.90;;;;;;5095324;28;20044;-86
2021/03/04 03:08:42;;;;;;;58.10;21.65;;;2.70;99.90;;;;;;5078147;28;20077;-87
2021/03/04 03:11:10;;;;;;;44.67;19.58;;;2.80;99.90;;;;;;5078570;28;20503;-87
2021/03/04 03:13:36;;;;;;;37.25;17.60;;;2.70;99.90;;;;;;5090457;28;20047;-87
2021/03/04 03:16:02;;;;;;;27.80;12.30;;;2.70;99.90;;;;;;5094855;28;20035;-86
2021/03/04 03:18:28;;;;;;;29.33;15.05;;;2.60;99.90;;;;;;5075001;28;20494;-87
2021/03/04 03:20:53;;;;;;;28.48;14.48;;;2.70;99.90;;;;;;5054217;28;20093;-85
2021/03/04 03:23:19;;;;;;;32.90;15.07;;;2.70;99.90;;;;;;5113155;28;20043;-86
2021/03/04 03:25:45;;;;;;;38.80;17.58;;;2.60;99.90;;;;;;5077697;28;20050;-86
2021/03/04 03:28:11;;;;;;;35.47;15.77;;;2.60;99.90;;;;;;5075031;28;20425;-86
2021/03/04 03:30:38;;;;;;;17.73;10.55;;;2.60;99.90;;;;;;5085957;28;20088;-87
2021/03/04 03:33:07;;;;;;;28.58;14.25;;;2.60;99.90;;;;;;5078997;28;20040;-87
2021/03/04 03:35:34;;;;;;;21.20;12.68;;;2.60;99.90;;;;;;5112512;28;20042;-90
2021/03/04 03:38:02;;;;;;;18.92;10.70;;;2.60;99.90;;;;;;5095055;28;20565;-86
2021/03/04 03:40:30;;;;;;;16.17;10.32;;;2.60;99.90;;;;;;5095113;28;20047;-86
2021/03/04 03:42:58;;;;;;;16.77;9.60;;;2.60;99.90;;;;;;5112218;28;20048;-86
2021/03/04 03:45:28;;;;;;;17.67;9.50;;;2.60;99.90;;;;;;5112513;28;20084;-86
2021/03/04 03:47:55;;;;;;;21.63;9.35;;;2.60;99.90;;;;;;5111862;28;20798;-86
2021/03/04 03:50:21;;;;;;;16.63;9.25;;;2.60;99.90;;;;;;5111945;28;20067;-87
2021/03/04 03:52:48;;;;;;;17.95;9.20;;;2.60;99.90;;;;;;5102124;28;20085;-86
2021/03/04 03:55:15;;;;;;;17.75;10.00;;;2.60;99.90;;;;;;5086904;28;20043;-86
2021/03/04 03:57:42;;;;;;;15.52;8.88;;;2.70;99.90;;;;;;5067466;28;20441;-84
2021/03/04 04:00:09;;;;;;;18.75;11.65;;;2.70;99.90;;;;;;5077194;28;20130;-83
2021/03/04 04:02:36;;;;;;;11.90;8.38;;;2.70;99.90;;;;;;5087301;28;20049;-85
2021/03/04 04:05:03;;;;;;;21.52;10.32;;;2.70;99.90;;;;;;5104116;28;20036;-83
2021/03/04 04:07:30;;;;;;;16.48;10.05;;;2.80;99.90;;;;;;5094332;28;20032;-83
2021/03/04 04:09:57;;;;;;;21.48;11.55;;;2.80;99.90;;;;;;5093712;28;20040;-84
2021/03/04 04:12:24;;;;;;;16.60;10.60;;;2.80;99.90;;;;;;5076477;28;20131;-84
2021/03/04 04:14:51;;;;;;;15.18;9.32;;;2.80;99.90;;;;;;5093343;28;20063;-84
2021/03/04 04:17:19;;;;;;;19.65;10.40;;;2.80;99.90;;;;;;5093787;28;20054;-84
2021/03/04 04:19:45;;;;;;;22.80;12.88;;;2.80;99.90;;;;;;5093359;28;20118;-83
2021/03/04 04:22:11;;;;;;;21.95;12.63;;;2.80;99.90;;;;;;5093828;28;20118;-84
2021/03/04 04:24:38;;;;;;;34.13;16.85;;;2.90;99.90;;;;;;5072507;28;20062;-82
2021/03/04 04:27:04;;;;;;;37.75;18.23;;;2.90;99.90;;;;;;5066929;28;20459;-83
2021/03/04 04:29:31;;;;;;;44.08;20.83;;;2.90;99.90;;;;;;5092935;28;20126;-83
2021/03/04 04:31:57;;;;;;;47.35;22.90;;;2.90;99.90;;;;;;5091956;28;20806;-84
2021/03/04 04:34:23;;;;;;;53.42;22.52;;;2.90;99.90;;;;;;5093323;28;20120;-83
2021/03/04 04:36:49;;;;;;;50.53;22.27;;;2.90;99.90;;;;;;5093244;28;20120;-85
2021/03/04 04:39:15;;;;;;;42.15;19.77;;;2.90;99.90;;;;;;5089307;28;20040;-83
2021/03/04 04:41:41;;;;;;;24.67;13.63;;;2.80;99.90;;;;;;5082006;28;20406;-84
2021/03/04 04:44:07;;;;;;;25.75;14.38;;;3.00;99.90;;;;;;5093215;28;20419;-84
2021/03/04 04:46:33;;;;;;;24.05;14.18;;;2.90;99.90;;;;;;5067303;28;20076;-84
2021/03/04 04:48:59;;;;;;;27.48;16.13;;;2.90;99.90;;;;;;5076138;28;20070;-83
2021/03/04 04:51:24;;;;;;;29.20;15.60;;;2.90;99.90;;;;;;5092422;28;20074;-85
2021/03/04 04:53:50;;;;;;;29.30;15.32;;;2.90;99.90;;;;;;5091251;28;20039;-83
2021/03/04 04:56:16;;;;;;;31.95;15.85;;;3.00;99.90;;;;;;5073067;28;20054;-85
2021/03/04 04:58:42;;;;;;;27.40;16.00;;;3.00;99.90;;;;;;5091151;28;20043;-83
2021/03/04 05:01:08;;;;;;;31.05;16.45;;;3.00;99.90;;;;;;5068107;28;20051;-84
2021/03/04 05:03:34;;;;;;;26.75;14.50;;;3.00;99.90;;;;;;5076278;28;20090;-85
2021/03/04 05:06:01;;;;;;;23.95;14.35;;;3.00;99.90;;;;;;5103320;28;20093;-84
2021/03/04 05:08:26;;;;;;;25.65;13.77;;;3.00;99.90;;;;;;5093127;28;20043;-83
2021/03/04 05:10:52;;;;;;;28.38;13.63;;;3.00;99.90;;;;;;5059164;28;20078;-85
2021/03/04 05:13:18;;;;;;;23.73;13.88;;;3.00;99.90;;;;;;5076039;28;20055;-83
2021/03/04 05:15:44;;;;;;;22.08;13.80;;;3.00;99.90;;;;;;5055255;28;20051;-84
2021/03/04 05:18:10;;;;;;;23.50;14.27;;;3.00;99.90;;;;;;5093049;28;20039;-84
2021/03/04 05:20:36;;;;;;;25.15;15.00;;;3.00;99.90;;;;;;5059828;28;20050;-83
2021/03/04 05:23:01;;;;;;;23.55;12.55;;;3.00;99.90;;;;;;5055493;28;20123;-83
2021/03/04 05:25:28;;;;;;;21.00;12.10;;;3.00;99.90;;;;;;5078012;28;20593;-84
2021/03/04 05:27:53;;;;;;;23.95;11.90;;;3.00;99.90;;;;;;5088933;28;20054;-83
2021/03/04 05:30:20;;;;;;;19.00;10.10;;;3.00;99.90;;;;;;5084138;28;20046;-83
2021/03/04 05:32:46;;;;;;;14.57;9.75;;;3.10;99.90;;;;;;5074013;28;20109;-82
2021/03/04 05:35:12;;;;;;;15.80;8.10;;;3.10;99.90;;;;;;5075271;28;20440;-82
2021/03/04 05:37:37;;;;;;;17.02;9.65;;;3.10;99.90;;;;;;5091790;28;20088;-85
2021/03/04 05:40:05;;;;;;;12.43;7.82;;;3.10;99.90;;;;;;5074805;28;20050;-84
2021/03/04 05:42:32;;;;;;;12.63;7.72;;;3.10;99.90;;;;;;5091466;28;20454;-83
2021/03/04 05:44:58;;;;;;;12.05;7.32;;;3.20;99.90;;;;;;5109963;28;20044;-83
2021/03/04 05:47:24;;;;;;;13.30;6.93;;;3.20;99.90;;;;;;5110409;28;20040;-83
2021/03/04 05:50:05;;;;;;;13.68;7.70;;;3.20;99.90;;;;;;5091439;28;20043;-83
2021/03/04 05:52:37;;;;;;;14.68;8.43;;;3.20;99.90;;;;;;5110514;28;20040;-83
2021/03/04 05:55:04;;;;;;;14.02;8.45;;;3.20;99.90;;;;;;5109665;28;20055;-82
2021/03/04 05:57:34;;;;;;;12.38;8.27;;;3.20;99.90;;;;;;5083605;28;20530;-84
2021/03/04 06:00:00;;;;;;;14.07;7.68;;;3.20;99.90;;;;;;5074495;28;20210;-83
2021/03/04 06:02:27;;;;;;;16.50;8.43;;;3.20;99.90;;;;;;5091823;28;20514;-82
2021/03/04 06:04:54;;;;;;;16.98;7.93;;;3.20;99.90;;;;;;5074367;28;20536;-84
2021/03/04 06:07:20;;;;;;;16.38;7.80;;;3.20;99.90;;;;;;5091565;28;20039;-83
2021/03/04 06:09:45;;;;;;;14.73;7.88;;;3.20;99.90;;;;;;5109581;28;20055;-83
2021/03/04 06:12:12;;;;;;;11.63;7.38;;;3.20;99.90;;;;;;5072914;28;20320;-83
2021/03/04 06:14:37;;;;;;;11.43;6.45;;;3.20;99.90;;;;;;5113256;28;20031;-83
2021/03/04 06:17:14;;;;;;;12.18;6.72;;;3.20;99.90;;;;;;5062140;28;20036;-83
2021/03/04 06:20:04;;;;;;;13.88;7.72;;;3.30;99.90;;;;;;5113758;28;20047;-86
2021/03/04 06:22:31;;;;;;;13.50;7.85;;;3.30;99.90;;;;;;5095062;28;20454;-83
2021/03/04 06:24:59;;;;;;;12.90;8.00;;;3.20;99.90;;;;;;5095503;28;20039;-84
2021/03/04 06:27:30;;;;;;;8.90;4.30;;;3.30;99.90;;;;;;5095715;28;20039;-83
2021/03/04 06:29:59;;;;;;;13.55;6.22;;;3.30;99.90;;;;;;5113025;28;20040;-83
2021/03/04 06:32:25;;;;;;;13.82;6.20;;;3.30;99.90;;;;;;5096244;28;20402;-86
2021/03/04 06:35:06;;;;;;;9.20;6.50;;;3.30;99.90;;;;;;5113011;28;20043;-83
2021/03/04 06:37:35;;;;;;;6.82;4.57;;;3.30;99.90;;;;;;5088163;28;20044;-84
2021/03/04 06:40:01;;;;;;;37.60;9.57;;;3.40;99.90;;;;;;5093211;28;20043;-84
2021/03/04 06:42:39;;;;;;;32.42;13.00;;;3.50;99.90;;;;;;5075739;28;20040;-84
2021/03/04 06:45:06;;;;;;;25.75;9.38;;;3.40;99.90;;;;;;5093758;28;20031;-85
2021/03/04 06:47:32;;;;;;;12.13;4.97;;;3.40;99.90;;;;;;5079069;28;20085;-86
2021/03/04 06:49:58;;;;;;;9.32;3.28;;;3.40;99.90;;;;;;5094990;28;20045;-85
2021/03/04 06:52:30;;;;;;;35.55;10.85;;;3.50;99.90;;;;;;5078964;28;20046;-85
2021/03/04 06:55:12;;;;;;;20.27;8.57;;;3.50;99.90;;;;;;5112838;28;20092;-86
2021/03/04 06:57:38;;;;;;;14.95;7.47;;;3.50;99.90;;;;;;5095859;28;20088;-86
2021/03/04 07:00:18;;;;;;;18.90;8.38;;;3.60;99.90;;;;;;5094692;28;20043;-86
2021/03/04 07:02:54;;;;;;;11.85;7.10;;;3.50;99.90;;;;;;5089190;28;20508;-85
2021/03/04 07:05:21;;;;;;;20.00;8.15;;;3.50;99.90;;;;;;5114147;28;20118;-86
2021/03/04 07:07:52;;;;;;;11.40;7.18;;;3.60;99.90;;;;;;5110672;28;20127;-88
2021/03/04 07:10:23;;;;;;;13.32;8.77;;;3.60;99.90;;;;;;5096315;28;20065;-85
2021/03/04 07:12:49;;;;;;;9.23;5.90;;;3.60;99.90;;;;;;5094653;28;20052;-89
2021/03/04 07:15:17;;;;;;;12.60;6.53;;;3.60;99.90;;;;;;5075740;28;20036;-85
2021/03/04 07:17:46;;;;;;;11.02;6.65;;;3.60;99.90;;;;;;5086817;28;20035;-86
2021/03/04 07:20:17;;;;;;;10.55;6.13;;;3.60;99.90;;;;;;5094142;28;20100;-86
2021/03/04 07:22:45;;;;;;;18.15;7.25;;;3.60;99.90;;;;;;5077845;28;20124;-85
2021/03/04 07:25:13;;;;;;;20.08;8.77;;;3.60;99.90;;;;;;5112482;28;20036;-85
2021/03/04 07:27:39;;;;;;;11.05;5.57;;;3.70;99.90;;;;;;5078031;28;20043;-88
2021/03/04 07:30:10;;;;;;;9.55;4.45;;;3.80;99.90;;;;;;5094131;28;20043;-86
2021/03/04 07:32:36;;;;;;;5.68;3.58;;;3.80;99.90;;;;;;5063317;28;20036;-85
2021/03/04 07:35:09;;;;;;;7.85;3.75;;;3.90;99.90;;;;;;5085144;28;20487;-86
2021/03/04 07:37:38;;;;;;;11.43;4.88;;;3.90;99.90;;;;;;5105757;28;20034;-86
2021/03/04 07:40:04;;;;;;;14.85;4.78;;;4.00;99.90;;;;;;5062695;28;20043;-86
2021/03/04 07:42:33;;;;;;;6.78;3.25;;;4.00;99.90;;;;;;5062428;28;20693;-85
2021/03/04 07:45:15;;;;;;;10.73;4.78;;;4.00;99.90;;;;;;5089458;28;20040;-85
2021/03/04 07:47:41;;;;;;;10.35;4.57;;;4.00;99.90;;;;;;5092861;28;20035;-85
2021/03/04 07:50:15;;;;;;;9.02;3.63;;;4.00;99.90;;;;;;5091997;28;20086;-85
2021/03/04 07:52:42;;;;;;;8.35;4.65;;;4.00;99.90;;;;;;5109991;28;20035;-86
2021/03/04 07:55:11;;;;;;;6.93;4.15;;;3.90;99.90;;;;;;5072583;28;20039;-86
2021/03/04 07:57:45;;;;;;;6.55;4.20;;;4.00;99.90;;;;;;5110016;28;20048;-86
2021/03/04 08:00:12;;;;;;;9.77;4.40;;;4.00;99.90;;;;;;5091247;28;20070;-86
2021/03/04 08:02:38;;;;;;;10.15;4.75;;;4.00;99.90;;;;;;5088055;28;20047;-85
2021/03/04 08:05:27;;;;;;;11.40;4.68;;;4.00;99.90;;;;;;5107884;28;20062;-85
2021/03/04 08:07:54;;;;;;;11.07;3.97;;;4.00;99.90;;;;;;5060581;28;20483;-88
2021/03/04 08:10:22;;;;;;;8.50;3.28;;;4.00;99.90;;;;;;5075992;28;20035;-85
2021/03/04 08:12:53;;;;;;;7.50;4.22;;;4.10;99.90;;;;;;5106879;28;20060;-87
2021/03/04 08:15:40;;;;;;;8.98;4.82;;;4.10;99.90;;;;;;5082548;28;20395;-85
2021/03/04 08:18:20;;;;;;;10.98;6.50;;;4.10;99.90;;;;;;5111746;28;20063;-86
2021/03/04 08:21:01;;;;;;;17.35;6.97;;;4.20;99.90;;;;;;5093873;28;20176;-85
2021/03/04 08:23:28;;;;;;;12.23;5.63;;;4.30;99.90;;;;;;5099379;28;20028;-86
2021/03/04 08:25:54;;;;;;;15.27;7.60;;;4.20;99.90;;;;;;5088027;28;20040;-91
2021/03/04 08:28:28;;;;;;;16.88;8.45;;;4.40;99.90;;;;;;5094942;28;20040;-88
2021/03/04 08:30:55;;;;;;;12.77;5.75;;;4.40;99.90;;;;;;5087510;28;20040;-89
2021/03/04 08:33:21;;;;;;;24.98;4.55;;;4.50;99.90;;;;;;5108105;28;20415;-86
2021/03/04 08:35:50;;;;;;;13.65;5.05;;;4.50;99.90;;;;;;5083240;28;20036;-87
2021/03/04 08:38:19;;;;;;;21.20;5.80;;;4.50;99.90;;;;;;5079414;28;20043;-89
2021/03/04 08:40:49;;;;;;;14.55;6.85;;;4.60;99.90;;;;;;5099314;28;20372;-87
2021/03/04 08:43:20;;;;;;;7.22;3.70;;;4.70;99.90;;;;;;5092512;28;20036;-87
2021/03/04 08:45:54;;;;;;;13.82;3.78;;;4.70;99.90;;;;;;5109405;28;20036;-87
2021/03/04 08:48:20;;;;;;;4.03;2.95;;;4.70;99.90;;;;;;5090872;28;20055;-87
2021/03/04 08:50:50;;;;;;;6.65;3.42;;;4.70;99.90;;;;;;5082390;28;20039;-86
2021/03/04 08:53:16;;;;;;;7.28;3.15;;;4.70;99.90;;;;;;5078571;28;20462;-88
2021/03/04 08:55:58;;;;;;;8.98;2.72;;;4.80;99.90;;;;;;5082144;28;20035;-87
2021/03/04 08:58:26;;;;;;;10.15;2.80;;;4.80;99.90;;;;;;5090279;28;20040;-88
2021/03/04 09:01:03;;;;;;;5.93;3.58;;;4.90;99.90;;;;;;5111890;28;20044;-87
2021/03/04 09:03:33;;;;;;;10.68;2.92;;;4.90;99.90;;;;;;5087288;28;20055;-87
2021/03/04 09:06:03;;;;;;;;;;;5.00;99.90;;;;;;5059436;28;20046;-87
2021/03/04 09:08:35;;;;;;;3.58;2.40;;;5.00;99.90;;;;;;5105420;28;19926;-87
2021/03/04 09:11:02;;;;;;;2.90;2.00;;;5.00;99.90;;;;;;5072711;28;20109;-87
2021/03/04 09:13:28;;;;;;;7.30;3.28;;;5.00;99.90;;;;;;5084569;28;20043;-88
2021/03/04 09:15:56;;;;;;;6.03;3.60;;;5.10;99.90;;;;;;5058336;28;20396;-87
2021/03/04 09:18:24;;;;;;;5.72;2.75;;;5.00;99.90;;;;;;5068858;28;20083;-88
2021/03/04 09:20:53;;;;;;;4.20;3.35;;;5.00;99.90;;;;;;5076997;28;20051;-86
2021/03/04 09:23:20;;;;;;;10.15;3.47;;;5.10;99.90;;;;;;5082596;28;20047;-86
2021/03/04 09:25:46;;;;;;;10.50;4.00;;;5.30;99.90;;;;;;5087692;28;20080;-87
2021/03/04 09:28:14;;;;;;;10.23;3.88;;;5.20;99.90;;;;;;5082505;28;21258;-87
2021/03/04 09:30:41;;;;;;;9.60;4.47;;;5.30;99.90;;;;;;5074675;28;20071;-88
2021/03/04 09:33:18;;;;;;;26.27;7.78;;;5.30;99.90;;;;;;5080640;28;20040;-87
2021/03/04 09:36:01;;;;;;;22.67;6.50;;;5.40;99.90;;;;;;5079834;28;20036;-90
2021/03/04 09:38:29;;;;;;;17.85;4.30;;;5.60;99.90;;;;;;5105525;28;20409;-87
2021/03/04 09:41:11;;;;;;;9.30;3.15;;;5.70;99.90;;;;;;5085126;28;20039;-87
2021/03/04 09:43:45;;;;;;;8.07;1.95;;;5.70;99.90;;;;;;5090557;28;20051;-89
2021/03/04 09:46:32;;;;;;;10.95;2.17;;;5.70;99.90;;;;;;5105485;28;20040;-87
2021/03/04 09:49:15;;;;;;;5.50;1.25;;;5.70;99.90;;;;;;5070826;28;20060;-91
2021/03/04 09:51:45;;;;;;;7.43;1.85;;;5.70;99.90;;;;;;5080103;28;20051;-87
2021/03/04 09:54:11;;;;;;;10.60;1.80;;;5.70;99.90;;;;;;5083931;28;20035;-88
2021/03/04 09:56:37;;;;;;;5.03;1.88;;;5.70;99.90;;;;;;5070389;28;20043;-86
2021/03/04 09:59:03;;;;;;;11.57;1.42;;;5.80;99.90;;;;;;5084901;28;20040;-89
2021/03/04 10:01:33;;;;;;;5.07;1.05;;;5.70;99.90;;;;;;5090055;28;20032;-87
2021/03/04 10:04:07;;;;;;;10.43;2.17;;;5.80;99.90;;;;;;5104233;28;20509;-89
2021/03/04 10:06:39;;;;;;;12.45;2.00;;;5.80;99.90;;;;;;5074845;28;20051;-86
2021/03/04 10:09:07;;;;;;;5.38;1.00;;;5.80;99.90;;;;;;5075772;28;20040;-86
2021/03/04 10:11:36;;;;;;;8.30;2.28;;;5.90;99.90;;;;;;5083609;28;20052;-86
2021/03/04 10:14:10;;;;;;;6.50;1.50;;;6.00;99.90;;;;;;5091298;28;20043;-90
2021/03/04 10:16:36;;;;;;;11.02;1.90;;;6.10;99.90;;;;;;5075523;28;20031;-86
2021/03/04 10:19:03;;;;;;;15.50;1.10;;;6.20;99.90;;;;;;5109813;28;20066;-88
2021/03/04 10:21:28;;;;;;;15.57;1.80;;;6.30;99.90;;;;;;5092014;28;20035;-87
2021/03/04 10:23:54;;;;;;;19.77;2.25;;;6.40;99.90;;;;;;5086708;28;20051;-86
2021/03/04 10:26:20;;;;;;;13.02;1.58;;;6.40;99.90;;;;;;5057448;28;20040;-87
2021/03/04 10:28:46;;;;;;;7.95;1.10;;;6.40;99.90;;;;;;5084022;28;20046;-85
2021/03/04 10:31:12;;;;;;;13.25;1.55;;;6.40;99.90;;;;;;5105854;28;20918;-85
2021/03/04 10:33:38;;;;;;;8.48;1.08;;;6.40;99.90;;;;;;5083576;28;20073;-86
2021/03/04 10:36:04;;;;;;;14.07;2.03;;;6.30;99.90;;;;;;5074713;28;20475;-89
2021/03/04 10:38:30;;;;;;;14.00;1.70;;;6.30;99.90;;;;;;5074510;28;20147;-87
2021/03/04 10:40:56;;;;;;;15.30;2.55;;;6.30;99.90;;;;;;5089743;28;20476;-86
2021/03/04 10:43:21;;;;;;;14.20;1.50;;;6.50;99.90;;;;;;5071699;28;20535;-86
2021/03/04 10:45:47;;;;;;;17.40;1.88;;;6.30;99.90;;;;;;5080782;28;20130;-87
2021/03/04 10:48:13;;;;;;;12.63;1.27;;;6.40;99.90;;;;;;5089655;28;20122;-86
2021/03/04 10:50:39;;;;;;;12.57;2.78;;;6.40;99.90;;;;;;5086784;28;20486;-88
2021/03/04 10:53:05;;;;;;;25.67;2.78;;;6.40;99.90;;;;;;5090159;28;20040;-92
2021/03/04 10:55:31;;;;;;;19.92;2.70;;;6.50;99.90;;;;;;5091947;28;20467;-85
2021/03/04 10:57:57;;;;;;;11.48;1.05;;;6.50;99.90;;;;;;5087097;28;20124;-86
2021/03/04 11:00:24;;;;;;;15.10;2.35;;;6.50;99.90;;;;;;5090144;28;20139;-86
2021/03/04 11:02:49;;;;;;;25.55;2.20;;;6.50;99.90;;;;;;5087616;28;20057;-87
2021/03/04 11:05:15;;;;;;;21.48;3.03;;;6.50;99.90;;;;;;5092524;28;20118;-87
2021/03/04 11:07:41;;;;;;;20.27;2.65;;;6.60;99.90;;;;;;5100179;28;20089;-86
2021/03/04 11:10:09;;;;;;;14.68;2.13;;;6.80;99.90;;;;;;5081858;28;20509;-92
2021/03/04 11:12:36;;;;;;;11.68;2.33;;;6.80;99.90;;;;;;5112678;28;21234;-85
2021/03/04 11:15:03;;;;;;;19.45;3.33;;;6.70;99.90;;;;;;5087186;28;20093;-86
2021/03/04 11:17:29;;;;;;;19.92;2.08;;;6.50;99.90;;;;;;5109376;28;20032;-88
2021/03/04 11:19:54;;;;;;;48.78;5.30;;;6.30;99.90;;;;;;5058058;28;20370;-88
2021/03/04 11:22:20;;;;;;;32.60;3.30;;;6.20;99.90;;;;;;5090007;28;20068;-90
2021/03/04 11:24:47;;;;;;;23.00;3.65;;;6.10;99.90;;;;;;5111122;28;20036;-88
2021/03/04 11:27:14;;;;;;;22.13;3.42;;;5.90;99.90;;;;;;5084672;28;20517;-86
2021/03/04 11:29:40;;;;;;;14.23;1.67;;;5.90;99.90;;;;;;5069462;28;20138;-86
2021/03/04 11:32:06;;;;;;;16.25;2.85;;;5.90;99.90;;;;;;5102075;28;20074;-87
2021/03/04 11:34:32;;;;;;;16.10;2.53;;;5.80;99.90;;;;;;5082110;28;20072;-86
2021/03/04 11:36:58;;;;;;;26.58;3.95;;;5.70;99.90;;;;;;5065408;28;20410;-87
2021/03/04 11:39:24;;;;;;;21.80;2.92;;;5.70;99.90;;;;;;5083990;28;20731;-86
2021/03/04 11:41:50;;;;;;;26.08;3.83;;;5.80;99.90;;;;;;5077631;28;20047;-88
2021/03/04 11:44:15;;;;;;;27.20;2.90;;;5.80;99.90;;;;;;5091334;28;20483;-87
2021/03/04 11:46:41;;;;;;;14.15;2.22;;;5.90;99.90;;;;;;5077135;28;20038;-89
2021/03/04 11:49:07;;;;;;;17.67;2.40;;;5.80;99.90;;;;;;5073101;28;20407;-87
2021/03/04 11:51:34;;;;;;;13.02;1.88;;;5.80;99.90;;;;;;5061231;28;20080;-87
2021/03/04 11:54:00;;;;;;;9.25;1.88;;;5.80;99.90;;;;;;5074540;28;20487;-86
2021/03/04 11:56:26;;;;;;;24.90;3.03;;;5.80;99.90;;;;;;5081402;28;20043;-87
2021/03/04 11:58:52;;;;;;;11.70;2.60;;;5.90;99.90;;;;;;5074297;28;20093;-87
2021/03/04 12:01:18;;;;;;;21.10;2.97;;;5.90;99.90;;;;;;5092658;28;20040;-88
2021/03/04 12:03:44;;;;;;;19.55;3.00;;;5.80;99.90;;;;;;5082670;28;20043;-87
2021/03/04 12:06:10;;;;;;;23.58;2.83;;;5.90;99.90;;;;;;5071783;28;20372;-90
2021/03/04 12:08:35;;;;;;;18.38;2.83;;;5.90;99.90;;;;;;5072462;28;20040;-89
2021/03/04 12:11:02;;;;;;;23.13;2.97;;;5.90;99.90;;;;;;5084395;28;20035;-87
2021/03/04 12:13:31;;;;;;;21.15;2.70;;;6.00;99.90;;;;;;5111776;28;20055;-87
2021/03/04 12:16:05;;;;;;;27.45;3.17;;;6.00;99.90;;;;;;5095314;28;20047;-87
2021/03/04 12:18:35;;;;;;;23.92;2.70;;;5.90;99.90;;;;;;5083141;28;20055;-87
2021/03/04 12:21:02;;;;;;;15.05;2.10;;;5.90;99.90;;;;;;5086492;28;20142;-87
2021/03/04 12:23:28;;;;;;;11.82;1.77;;;5.90;99.90;;;;;;5077202;28;20054;-87
2021/03/04 12:25:53;;;;;;;18.55;3.42;;;5.90;99.90;;;;;;5074050;28;20040;-87
2021/03/04 12:28:20;;;;;;;29.73;2.85;;;5.70;99.90;;;;;;5056994;28;20067;-87
2021/03/04 12:30:46;;;;;;;25.65;3.50;;;5.70;99.90;;;;;;5074368;28;20088;-87
2021/03/04 12:33:12;;;;;;;23.55;3.65;;;5.60;99.90;;;;;;5075120;28;20483;-87
2021/03/04 12:35:39;;;;;;;24.45;3.33;;;5.70;99.90;;;;;;5085602;28;20060;-87
2021/03/04 12:38:05;;;;;;;24.52;2.40;;;5.70;99.90;;;;;;5075564;28;20675;-88
2021/03/04 12:40:32;;;;;;;17.65;3.20;;;5.70;99.90;;;;;;5093639;28;20380;-86
2021/03/04 12:42:58;;;;;;;14.50;2.40;;;5.70;99.90;;;;;;5075985;28;20051;-87
2021/03/04 12:45:24;;;;;;;33.55;2.75;;;5.70;99.90;;;;;;5104308;28;20036;-87
2021/03/04 12:47:50;;;;;;;7.45;1.73;;;5.70;99.90;;;;;;5069742;28;20126;-88
2021/03/04 12:50:16;;;;;;;28.50;4.15;;;5.70;99.90;;;;;;5111187;28;20142;-87